Time;durP1;ratioP1;P1;durP2;ratioP2;P2;SDS_P1;SDS_P2;PMS_P1;PMS_P2;Temp;Humidity;BMP_temperature;BMP_pressure;BME280_temperature;BME280_humidity;BME280_pressure;Samples;Min_cycle;Max_cycle;Signal;HPM_P1;HPM_P2
2023/09/28 00:02:54;;;;;;;3.10;2.30;;;18.60;99.90;;;;;;4863215;29;20109;-79
2023/09/28 00:05:20;;;;;;;2.42;2.17;;;18.60;99.90;;;;;;4862785;29;20044;-79
2023/09/28 00:07:47;;;;;;;2.88;2.40;;;18.60;99.90;;;;;;4872351;29;20709;-79
2023/09/28 00:10:15;;;;;;;2.80;2.22;;;18.60;99.90;;;;;;4845836;29;20115;-79
2023/09/28 00:12:46;;;;;;;2.33;1.90;;;18.60;99.90;;;;;;4858334;29;20044;-79
2023/09/28 00:15:12;;;;;;;2.83;2.30;;;18.60;99.90;;;;;;4857499;29;20041;-79
2023/09/28 00:17:38;;;;;;;;;;;18.60;99.90;;;;;;4855127;29;20045;-79
2023/09/28 00:20:18;;;;;;;2.67;2.08;;;18.60;99.90;;;;;;4863913;29;19984;-79
2023/09/28 00:22:48;;;;;;;2.08;1.88;;;18.60;99.90;;;;;;4863677;29;20053;-79
2023/09/28 00:25:16;;;;;;;2.92;1.90;;;18.60;99.90;;;;;;4867731;29;20144;-80
2023/09/28 00:27:47;;;;;;;2.25;1.92;;;18.60;99.90;;;;;;4857254;29;20045;-80
2023/09/28 00:30:20;;;;;;;1.85;1.70;;;18.60;99.90;;;;;;4872425;29;20048;-79
2023/09/28 00:32:46;;;;;;;2.75;2.17;;;18.60;99.90;;;;;;4864726;29;20109;-80
2023/09/28 00:35:13;;;;;;;2.83;2.20;;;18.60;99.90;;;;;;4847899;29;20076;-79
2023/09/28 00:37:39;;;;;;;2.00;1.80;;;18.50;99.90;;;;;;4860949;29;20100;-80
2023/09/28 00:40:19;;;;;;;3.05;1.77;;;18.50;99.90;;;;;;4862837;29;20513;-80
2023/09/28 00:42:45;;;;;;;2.17;1.95;;;18.50;99.90;;;;;;4848120;29;20374;-80
2023/09/28 00:45:11;;;;;;;1.88;1.67;;;18.50;99.90;;;;;;4866991;29;20045;-80
2023/09/28 00:47:40;;;;;;;;;;;18.50;99.90;;;;;;4872761;29;20059;-80
2023/09/28 00:50:11;;;;;;;2.22;2.00;;;18.40;99.90;;;;;;4846225;29;20381;-79
2023/09/28 00:52:40;;;;;;;2.60;2.00;;;18.40;99.90;;;;;;4870877;29;20138;-80
2023/09/28 00:55:08;;;;;;;2.97;2.10;;;18.40;99.90;;;;;;4860684;29;20045;-79
2023/09/28 00:57:35;;;;;;;2.00;1.80;;;18.40;99.90;;;;;;4835994;29;20081;-79
2023/09/28 01:00:18;;;;;;;2.53;2.20;;;18.40;99.90;;;;;;4861892;29;20168;-79
2023/09/28 01:02:51;;;;;;;2.67;2.30;;;18.30;99.90;;;;;;4862888;29;20138;-80
2023/09/28 01:05:33;;;;;;;2.25;2.05;;;18.30;99.90;;;;;;4849609;29;20068;-79
2023/09/28 01:08:07;;;;;;;2.30;1.90;;;18.30;99.90;;;;;;4863564;29;20049;-80
2023/09/28 01:10:36;;;;;;;2.95;2.20;;;18.30;99.90;;;;;;4853495;29;20454;-79
2023/09/28 01:13:11;;;;;;;2.22;1.98;;;18.30;99.90;;;;;;4867016;29;20055;-79
2023/09/28 01:15:47;;;;;;;2.15;1.80;;;18.30;99.90;;;;;;4867746;29;20044;-79
2023/09/28 01:18:16;;;;;;;2.85;1.73;;;18.20;99.90;;;;;;4869292;29;20047;-80
2023/09/28 01:20:47;;;;;;;1.90;1.70;;;18.20;99.90;;;;;;4848734;29;20049;-80
2023/09/28 01:23:13;;;;;;;2.08;1.88;;;18.20;99.90;;;;;;4856570;29;20075;-80
2023/09/28 01:25:39;;;;;;;1.90;1.80;;;18.20;99.90;;;;;;4854900;29;20053;-80
2023/09/28 01:28:06;;;;;;;3.15;2.33;;;18.20;99.90;;;;;;4873297;29;20193;-80
2023/09/28 01:30:33;;;;;;;1.90;1.70;;;18.20;99.90;;;;;;4868386;29;20049;-80
2023/09/28 01:32:58;;;;;;;2.75;1.80;;;18.20;99.90;;;;;;4873641;29;20045;-79
2023/09/28 01:35:24;;;;;;;;;;;18.20;99.90;;;;;;4853349;29;20503;-79
2023/09/28 01:38:02;;;;;;;2.10;1.90;;;18.10;99.90;;;;;;4870196;29;19931;-80
2023/09/28 01:40:28;;;;;;;2.60;1.85;;;18.10;99.90;;;;;;4871565;29;20108;-80
2023/09/28 01:42:53;;;;;;;;;;;18.10;99.90;;;;;;4869723;29;20095;-80
2023/09/28 01:45:19;;;;;;;2.70;1.80;;;18.10;99.90;;;;;;4862686;29;20273;-79
2023/09/28 01:47:45;;;;;;;;;;;18.10;99.90;;;;;;4854852;29;20052;-80
2023/09/28 01:50:10;;;;;;;1.95;1.70;;;18.00;99.90;;;;;;4871478;29;19924;-80
2023/09/28 01:52:36;;;;;;;2.47;1.67;;;18.00;99.90;;;;;;4852115;29;20136;-80
2023/09/28 01:55:02;;;;;;;;;;;18.00;99.90;;;;;;4820335;29;20120;-79
2023/09/28 01:57:27;;;;;;;1.98;1.58;;;18.00;99.90;;;;;;4871413;29;20405;-80
2023/09/28 01:59:53;;;;;;;;;;;18.00;99.90;;;;;;4863865;29;20592;-80
2023/09/28 02:02:21;;;;;;;2.10;1.77;;;18.00;99.90;;;;;;4856972;29;19920;-80
2023/09/28 02:04:46;;;;;;;2.05;1.75;;;17.90;99.90;;;;;;4841008;29;20408;-79
2023/09/28 02:07:12;;;;;;;;;;;17.90;99.90;;;;;;4840779;29;20041;-80
2023/09/28 02:09:38;;;;;;;2.05;1.60;;;17.90;99.90;;;;;;4858073;29;19920;-79
2023/09/28 02:12:04;;;;;;;;;;;17.80;99.90;;;;;;4834518;29;20493;-80
2023/09/28 02:14:30;;;;;;;1.80;1.40;;;17.80;99.90;;;;;;4834017;29;19963;-80
2023/09/28 02:16:56;;;;;;;1.85;1.40;;;17.80;99.90;;;;;;4840292;29;20052;-81
2023/09/28 02:19:22;;;;;;;;;;;17.80;99.90;;;;;;4845375;29;20045;-80
2023/09/28 02:21:48;;;;;;;1.95;1.50;;;17.70;99.90;;;;;;4847097;29;20379;-80
2023/09/28 02:24:13;;;;;;;;;;;17.70;99.90;;;;;;4855738;29;20117;-80
2023/09/28 02:26:39;;;;;;;2.03;1.80;;;17.70;99.90;;;;;;4853496;29;20006;-80
2023/09/28 02:29:05;;;;;;;1.85;1.73;;;17.60;99.90;;;;;;4829563;29;20465;-80
2023/09/28 02:31:31;;;;;;;;;;;17.60;99.90;;;;;;4852393;29;20151;-80
2023/09/28 02:33:57;;;;;;;1.65;1.50;;;17.60;99.90;;;;;;4844150;29;19924;-79
2023/09/28 02:36:23;;;;;;;;;;;17.50;99.90;;;;;;4843607;29;20050;-80
2023/09/28 02:38:49;;;;;;;1.70;1.50;;;17.50;99.90;;;;;;4857027;29;19945;-80
2023/09/28 02:41:18;;;;;;;;;;;17.40;99.90;;;;;;4835907;29;20109;-80
2023/09/28 02:43:44;;;;;;;2.00;1.80;;;17.40;99.90;;;;;;4864879;29;19927;-81
2023/09/28 02:46:11;;;;;;;1.73;1.40;;;17.40;99.90;;;;;;4864808;29;20138;-81
2023/09/28 02:48:39;;;;;;;2.25;1.60;;;17.40;99.90;;;;;;4849363;29;20089;-81
2023/09/28 02:51:07;;;;;;;1.80;1.60;;;17.40;99.90;;;;;;4870143;29;20060;-81
2023/09/28 02:53:35;;;;;;;1.65;1.40;;;17.40;99.90;;;;;;4878271;29;20509;-81
2023/09/28 02:56:01;;;;;;;1.90;1.50;;;17.30;99.90;;;;;;4864500;29;20529;-81
2023/09/28 02:58:26;;;;;;;;;;;17.30;99.90;;;;;;4849657;29;20045;-80
2023/09/28 03:00:56;;;;;;;1.90;1.60;;;17.30;99.90;;;;;;4864703;29;19941;-80
2023/09/28 03:03:26;;;;;;;1.95;1.50;;;17.30;99.90;;;;;;4864374;29;20106;-81
2023/09/28 03:05:54;;;;;;;1.77;1.40;;;17.20;99.90;;;;;;4864540;29;20382;-81
2023/09/28 03:08:21;;;;;;;1.95;1.50;;;17.20;99.90;;;;;;4865320;29;20082;-81
2023/09/28 03:10:46;;;;;;;2.38;1.60;;;17.20;99.90;;;;;;4876346;29;20044;-81
2023/09/28 03:13:12;;;;;;;;;;;17.20;99.90;;;;;;4849569;29;20113;-81
2023/09/28 03:15:43;;;;;;;2.50;1.77;;;17.20;99.90;;;;;;4869245;29;19920;-81
2023/09/28 03:18:15;;;;;;;2.47;1.80;;;17.20;99.90;;;;;;4868044;29;20052;-81
2023/09/28 03:20:43;;;;;;;1.75;1.65;;;17.10;99.90;;;;;;4864195;29;20424;-81
2023/09/28 03:23:09;;;;;;;3.38;2.22;;;17.10;99.90;;;;;;4864119;29;20117;-80
2023/09/28 03:25:34;;;;;;;;;;;17.10;99.90;;;;;;4849370;29;20044;-81
2023/09/28 03:28:01;;;;;;;2.47;2.10;;;17.10;99.90;;;;;;4852833;29;19923;-81
2023/09/28 03:30:28;;;;;;;2.45;1.85;;;17.10;99.90;;;;;;4852883;29;20055;-81
2023/09/28 03:32:56;;;;;;;2.22;1.70;;;17.10;99.90;;;;;;4863849;29;20049;-81
2023/09/28 03:35:22;;;;;;;2.33;2.10;;;17.10;99.90;;;;;;4848597;29;20044;-81
2023/09/28 03:37:53;;;;;;;2.38;1.70;;;17.10;99.90;;;;;;4863079;29;20049;-81
2023/09/28 03:40:20;;;;;;;2.72;1.98;;;17.10;99.90;;;;;;4849608;29;20038;-80
2023/09/28 03:42:48;;;;;;;2.17;1.67;;;17.10;99.90;;;;;;4829880;29;20045;-80
2023/09/28 03:45:16;;;;;;;1.85;1.50;;;17.10;99.90;;;;;;4846227;29;20052;-80
2023/09/28 03:47:43;;;;;;;1.35;1.25;;;17.10;99.90;;;;;;4863545;29;20093;-80
2023/09/28 03:50:12;;;;;;;1.50;1.40;;;17.10;99.90;;;;;;4860867;29;20061;-79
2023/09/28 03:52:39;;;;;;;1.80;1.50;;;17.00;99.90;;;;;;4850300;29;20486;-79
2023/09/28 03:55:08;;;;;;;1.80;1.40;;;17.00;99.90;;;;;;4869983;29;20505;-79
2023/09/28 03:57:33;;;;;;;2.15;1.58;;;17.00;99.90;;;;;;4857157;29;20060;-79
2023/09/28 03:59:59;;;;;;;;;;;16.90;99.90;;;;;;4847789;29;20052;-79
2023/09/28 04:02:28;;;;;;;1.73;1.50;;;16.90;99.90;;;;;;4851143;29;20010;-79
2023/09/28 04:04:54;;;;;;;1.55;1.27;;;16.90;99.90;;;;;;4842895;29;20045;-82
2023/09/28 04:07:20;;;;;;;;;;;16.80;99.90;;;;;;4854343;29;20656;-78
2023/09/28 04:09:46;;;;;;;2.60;1.83;;;16.80;99.90;;;;;;4860054;29;19924;-80
2023/09/28 04:12:15;;;;;;;2.25;1.70;;;16.70;99.90;;;;;;4862108;29;20346;-80
2023/09/28 04:14:41;;;;;;;1.73;1.50;;;16.70;99.90;;;;;;4861019;29;20037;-80
2023/09/28 04:17:07;;;;;;;;;;;16.60;99.90;;;;;;4833307;29;20043;-78
2023/09/28 04:19:33;;;;;;;2.70;1.60;;;16.60;99.90;;;;;;4844473;29;20369;-78
2023/09/28 04:21:59;;;;;;;2.53;1.60;;;16.60;99.90;;;;;;4835939;29;20045;-79
2023/09/28 04:24:24;;;;;;;;;;;16.60;99.90;;;;;;4834368;29;20037;-85
2023/09/28 04:26:51;;;;;;;1.83;1.48;;;16.50;99.90;;;;;;4831718;29;19930;-79
2023/09/28 04:29:17;;;;;;;2.13;1.92;;;16.50;99.90;;;;;;4854938;29;20050;-79
2023/09/28 04:31:43;;;;;;;;;;;16.50;99.90;;;;;;4851114;29;20396;-79
2023/09/28 04:34:12;;;;;;;2.42;1.63;;;16.40;99.90;;;;;;4849873;29;19924;-79
2023/09/28 04:36:38;;;;;;;2.50;1.85;;;16.40;99.90;;;;;;4831278;29;20169;-79
2023/09/28 04:39:05;;;;;;;1.95;1.40;;;16.40;99.90;;;;;;4840471;29;20044;-79
2023/09/28 04:41:31;;;;;;;2.22;1.80;;;16.40;99.90;;;;;;4859881;29;20063;-79
2023/09/28 04:43:58;;;;;;;2.25;1.67;;;16.30;99.90;;;;;;4852891;29;20041;-79
2023/09/28 04:46:26;;;;;;;2.08;1.67;;;16.30;99.90;;;;;;4859864;29;20064;-79
2023/09/28 04:48:53;;;;;;;2.35;1.77;;;16.30;99.90;;;;;;4860967;29;20057;-80
2023/09/28 04:51:19;;;;;;;2.42;1.67;;;16.30;99.90;;;;;;4858570;29;20395;-79
2023/09/28 04:53:45;;;;;;;2.45;1.70;;;16.30;99.90;;;;;;4880064;29;20052;-80
2023/09/28 04:56:12;;;;;;;3.08;2.28;;;16.30;99.90;;;;;;4851870;29;20482;-79
2023/09/28 04:58:38;;;;;;;3.50;2.38;;;16.30;99.90;;;;;;4858827;29;20037;-80
2023/09/28 05:01:04;;;;;;;;;;;16.30;99.90;;;;;;4852600;29;20049;-79
2023/09/28 05:03:30;;;;;;;4.18;2.90;;;16.40;99.90;;;;;;4845782;29;19927;-79
2023/09/28 05:05:57;;;;;;;3.25;2.70;;;16.40;99.90;;;;;;4852130;29;20045;-79
2023/09/28 05:08:23;;;;;;;4.57;2.88;;;16.40;99.90;;;;;;4845394;29;20183;-79
2023/09/28 05:10:50;;;;;;;;;;;16.40;99.90;;;;;;4830163;29;20049;-79
2023/09/28 05:13:15;;;;;;;3.57;2.43;;;16.40;99.90;;;;;;4844482;29;19928;-79
2023/09/28 05:15:41;;;;;;;3.53;2.70;;;16.30;99.90;;;;;;4857422;29;20043;-79
2023/09/28 05:18:07;;;;;;;5.18;3.28;;;16.30;99.90;;;;;;4849708;29;20037;-79
2023/09/28 05:20:33;;;;;;;4.75;2.90;;;16.40;99.90;;;;;;4848911;29;20104;-79
2023/09/28 05:22:59;;;;;;;14.10;3.38;;;16.30;99.90;;;;;;4841239;29;20057;-77
2023/09/28 05:25:25;;;;;;;4.68;2.78;;;16.40;99.90;;;;;;4845848;29;20045;-77
2023/09/28 05:27:51;;;;;;;3.47;2.00;;;16.40;99.90;;;;;;4856817;29;20045;-78
2023/09/28 05:30:17;;;;;;;3.90;1.98;;;16.40;99.90;;;;;;4836482;29;20124;-77
2023/09/28 05:32:43;;;;;;;;;;;16.40;99.90;;;;;;4832404;29;20049;-78
2023/09/28 05:35:10;;;;;;;4.18;2.10;;;16.40;99.90;;;;;;4853998;29;20387;-77
2023/09/28 05:37:36;;;;;;;3.22;1.80;;;16.40;99.90;;;;;;4844432;29;20079;-79
2023/09/28 05:40:04;;;;;;;6.15;1.88;;;16.40;99.90;;;;;;4859552;29;20049;-77
2023/09/28 05:42:33;;;;;;;3.47;2.10;;;16.40;99.90;;;;;;4829125;29;20057;-76
2023/09/28 05:45:00;;;;;;;3.90;2.10;;;16.40;99.90;;;;;;4863188;29;20044;-77
2023/09/28 05:47:26;;;;;;;4.40;1.98;;;16.40;99.90;;;;;;4852695;29;20057;-77
2023/09/28 05:49:52;;;;;;;4.43;2.30;;;16.40;99.90;;;;;;4830354;29;20060;-76
2023/09/28 05:52:18;;;;;;;3.63;1.80;;;16.40;99.90;;;;;;4846401;29;20051;-77
2023/09/28 05:54:45;;;;;;;4.95;1.67;;;16.40;99.90;;;;;;4837502;29;20052;-77
2023/09/28 05:57:13;;;;;;;;;;;16.30;99.90;;;;;;4853297;29;20037;-77
2023/09/28 05:59:39;;;;;;;3.42;1.90;;;16.30;99.90;;;;;;4849752;29;19976;-76
2023/09/28 06:02:05;;;;;;;;;;;16.30;99.90;;;;;;4864196;29;20084;-83
2023/09/28 06:04:33;;;;;;;2.55;1.52;;;16.30;99.90;;;;;;4847502;29;19966;-79
2023/09/28 06:06:59;;;;;;;2.00;1.50;;;16.30;99.90;;;;;;4842782;29;20079;-80
2023/09/28 08:19:37;;;;;;;9.77;2.60;;;18.60;99.90;;;;;;5245835;23;20060;-81
2023/09/28 08:22:03;;;;;;;5.70;1.95;;;18.50;99.90;;;;;;4844678;29;20554;-81
2023/09/28 08:27:01;;;;;;;8.32;2.10;;;18.60;99.90;;;;;;4857973;29;20390;-79
2023/09/28 08:29:27;;;;;;;;;;;18.60;99.90;;;;;;4832614;29;20104;-79
2023/09/28 08:31:54;;;;;;;5.93;1.73;;;18.70;99.90;;;;;;4839349;29;19928;-80
2023/09/28 08:34:20;;;;;;;9.40;2.22;;;18.70;99.90;;;;;;4825737;29;20050;-79
2023/09/28 08:36:46;;;;;;;;;;;18.80;99.90;;;;;;4826176;29;20182;-80
2023/09/28 08:39:12;;;;;;;5.95;1.75;;;18.80;99.90;;;;;;4825181;29;19931;-80
2023/09/28 08:41:47;;;;;;;6.97;1.80;;;18.80;99.90;;;;;;4825274;29;20057;-80
2023/09/28 08:44:14;;;;;;;8.65;2.45;;;18.80;99.90;;;;;;4825428;29;20089;-80
2023/09/28 08:46:40;;;;;;;5.32;1.73;;;18.80;99.90;;;;;;4825664;29;20054;-80
2023/09/28 08:49:17;;;;;;;5.00;1.60;;;18.80;99.90;;;;;;4810202;29;20064;-80
2023/09/28 08:51:44;;;;;;;8.48;1.90;;;18.90;99.90;;;;;;4825652;29;20057;-80
2023/09/28 08:54:12;;;;;;;6.28;2.00;;;19.00;99.90;;;;;;4825146;29;20501;-80
2023/09/28 08:56:42;;;;;;;10.45;2.45;;;19.00;99.90;;;;;;4825561;29;20402;-80
2023/09/28 08:59:09;;;;;;;6.88;2.25;;;19.10;99.90;;;;;;4825702;29;20371;-80
2023/09/28 09:01:36;;;;;;;6.85;2.30;;;19.30;99.90;;;;;;4825161;29;20108;-80
2023/09/28 09:04:03;;;;;;;9.15;2.45;;;19.40;99.90;;;;;;4825097;29;20056;-80
2023/09/28 09:06:29;;;;;;;7.78;1.95;;;19.50;99.90;;;;;;4825322;29;20046;-80
2023/09/28 09:09:03;;;;;;;8.18;2.45;;;19.50;99.90;;;;;;4825199;29;20136;-80
2023/09/28 09:11:31;;;;;;;8.75;2.55;;;19.40;99.90;;;;;;4825086;29;20476;-80
2023/09/28 09:13:57;;;;;;;7.32;2.15;;;19.40;99.90;;;;;;4825119;29;20081;-80
2023/09/28 09:16:25;;;;;;;6.85;2.10;;;19.40;99.90;;;;;;4825157;29;20103;-80
2023/09/28 09:18:54;;;;;;;7.90;2.10;;;19.40;99.90;;;;;;4824956;29;20077;-80
2023/09/28 09:21:21;;;;;;;8.85;2.00;;;19.30;99.90;;;;;;4825280;29;20042;-80
2023/09/28 09:24:00;;;;;;;9.65;2.55;;;19.30;99.90;;;;;;4825115;29;20060;-80
2023/09/28 09:26:26;;;;;;;8.23;1.95;;;19.40;99.90;;;;;;4835914;29;20068;-80
2023/09/28 09:28:58;;;;;;;6.28;1.90;;;19.50;99.90;;;;;;4791956;29;20418;-80
2023/09/28 09:31:25;;;;;;;9.57;2.40;;;19.40;99.90;;;;;;4806600;29;20047;-80
2023/09/28 09:33:50;;;;;;;6.90;2.25;;;19.30;99.90;;;;;;4836793;29;20143;-80
2023/09/28 09:36:19;;;;;;;;;;;19.40;99.90;;;;;;4807142;29;20046;-80
2023/09/28 09:38:45;;;;;;;6.22;1.80;;;19.30;99.90;;;;;;4836965;29;19920;-80
2023/09/28 09:41:11;;;;;;;5.88;1.70;;;19.30;99.90;;;;;;4822069;29;20506;-80
2023/09/28 09:43:40;;;;;;;;;;;19.20;99.90;;;;;;4807098;29;20050;-80
2023/09/28 09:46:09;;;;;;;8.98;2.83;;;19.10;99.90;;;;;;4836808;29;20292;-80
2023/09/28 09:48:40;;;;;;;7.50;2.40;;;19.10;99.90;;;;;;4821574;29;20062;-80
2023/09/28 09:51:12;;;;;;;11.63;3.40;;;19.00;99.90;;;;;;4791437;29;20502;-80
2023/09/28 09:53:40;;;;;;;9.05;2.70;;;18.90;99.90;;;;;;4806309;29;20046;-80
2023/09/28 09:56:07;;;;;;;9.13;3.08;;;18.90;99.90;;;;;;4806071;29;20503;-80
2023/09/28 09:58:39;;;;;;;9.93;3.05;;;18.90;99.90;;;;;;4806383;29;20045;-80
2023/09/28 10:01:12;;;;;;;9.50;2.97;;;18.90;99.90;;;;;;4791506;29;20038;-80
2023/09/28 10:03:59;;;;;;;11.20;3.80;;;18.90;99.90;;;;;;4836797;29;20141;-80
2023/09/28 10:06:26;;;;;;;9.80;4.03;;;19.00;99.90;;;;;;4806477;29;20038;-80
2023/09/28 10:08:53;;;;;;;12.48;3.85;;;19.00;99.90;;;;;;4821535;29;20102;-80
2023/09/28 10:11:19;;;;;;;9.13;3.55;;;19.10;99.90;;;;;;4821328;29;20050;-80
2023/09/28 10:13:48;;;;;;;;;;;19.10;99.90;;;;;;4822021;29;20103;-80
2023/09/28 10:16:17;;;;;;;12.55;3.92;;;19.10;99.90;;;;;;4791394;29;19921;-80
2023/09/28 10:18:47;;;;;;;9.85;3.50;;;19.20;99.90;;;;;;4805740;29;20065;-80
2023/09/28 10:21:14;;;;;;;10.15;3.20;;;19.10;99.90;;;;;;4791034;29;20065;-81
2023/09/28 10:23:40;;;;;;;7.93;2.90;;;19.20;99.90;;;;;;4805810;29;20057;-80
2023/09/28 10:26:14;;;;;;;;;;;19.20;99.90;;;;;;4805993;29;20070;-80
2023/09/28 10:29:03;;;;;;;7.60;2.80;;;19.20;99.90;;;;;;4814853;29;19931;-80
2023/09/28 10:31:39;;;;;;;7.53;2.47;;;19.10;99.90;;;;;;4824265;29;20061;-80
2023/09/28 10:34:07;;;;;;;8.35;1.83;;;19.10;99.90;;;;;;4823642;29;20053;-80
2023/09/28 10:36:35;;;;;;;7.35;2.08;;;19.20;99.90;;;;;;4824214;29;20045;-80
2023/09/28 10:39:12;;;;;;;5.45;2.00;;;19.10;99.90;;;;;;4823992;29;20056;-79
2023/09/28 10:41:39;;;;;;;9.77;2.40;;;19.10;99.90;;;;;;4824323;29;20123;-79
2023/09/28 10:44:32;;;;;;;4.70;1.60;;;19.10;99.90;;;;;;4854160;29;20057;-79
2023/09/28 10:46:58;;;;;;;5.60;1.88;;;19.10;99.90;;;;;;4806772;29;20054;-80
2023/09/28 10:49:28;;;;;;;5.13;1.60;;;19.00;99.90;;;;;;4808799;29;20532;-80
2023/09/28 10:51:56;;;;;;;5.95;1.73;;;19.00;99.90;;;;;;4808731;29;20390;-79
2023/09/28 10:54:24;;;;;;;7.00;1.98;;;19.00;99.90;;;;;;4854563;29;20402;-80
2023/09/28 10:56:50;;;;;;;4.57;1.63;;;19.00;99.90;;;;;;4839190;29;20371;-80
2023/09/28 10:59:18;;;;;;;7.20;2.00;;;19.00;99.90;;;;;;4823616;29;20117;-80
2023/09/28 11:01:48;;;;;;;5.93;1.73;;;18.90;99.90;;;;;;4823743;29;20566;-80
2023/09/28 11:04:15;;;;;;;4.40;1.52;;;19.00;99.90;;;;;;4826314;29;20102;-80
2023/09/28 11:06:43;;;;;;;7.93;1.80;;;19.00;99.90;;;;;;4827263;29;20094;-80
2023/09/28 11:09:10;;;;;;;6.90;1.83;;;18.90;99.90;;;;;;4827437;29;20057;-80
2023/09/28 11:11:40;;;;;;;6.38;1.90;;;18.90;99.90;;;;;;4827205;29;20050;-80
2023/09/28 11:14:06;;;;;;;4.75;1.77;;;18.90;99.90;;;;;;4826908;29;20050;-80
2023/09/28 11:16:35;;;;;;;7.38;2.05;;;19.00;99.90;;;;;;4826877;29;20046;-80
2023/09/28 11:19:01;;;;;;;5.57;1.80;;;18.90;99.90;;;;;;4826791;29;20053;-80
2023/09/28 11:21:29;;;;;;;5.22;1.95;;;18.90;99.90;;;;;;4827151;29;20045;-80
2023/09/28 11:23:54;;;;;;;4.40;1.63;;;19.00;99.90;;;;;;4826854;29;20054;-80
2023/09/28 11:26:21;;;;;;;;;;;19.00;99.90;;;;;;4857665;29;20065;-80
2023/09/28 11:28:48;;;;;;;8.13;2.57;;;18.90;99.90;;;;;;4826660;29;20289;-80
2023/09/28 11:31:15;;;;;;;6.35;2.03;;;18.90;99.90;;;;;;4826765;29;20286;-79
2023/09/28 11:33:44;;;;;;;7.78;2.03;;;18.90;99.90;;;;;;4841648;29;20085;-80
2023/09/28 11:36:21;;;;;;;6.40;1.70;;;18.80;99.90;;;;;;4826772;29;20054;-80
2023/09/28 11:38:48;;;;;;;6.22;1.80;;;18.80;99.90;;;;;;4826647;29;20092;-80
2023/09/28 11:41:14;;;;;;;5.60;1.98;;;18.80;99.90;;;;;;4826839;29;20053;-80
2023/09/28 11:43:53;;;;;;;;;;;18.80;99.90;;;;;;4826870;29;20422;-80
2023/09/28 11:46:23;;;;;;;7.13;2.15;;;18.90;99.90;;;;;;4826799;29;19989;-80
2023/09/28 11:49:11;;;;;;;8.25;2.10;;;18.90;99.90;;;;;;4857237;29;20096;-80
2023/09/28 11:51:38;;;;;;;8.57;2.05;;;19.00;99.90;;;;;;4826641;29;20112;-80
2023/09/28 11:54:11;;;;;;;10.23;2.40;;;19.00;99.90;;;;;;4826187;29;20087;-80
2023/09/28 11:56:37;;;;;;;9.10;2.60;;;19.00;99.90;;;;;;4842182;29;20046;-80
2023/09/28 11:59:03;;;;;;;;;;;19.10;99.90;;;;;;4826981;29;20451;-80
2023/09/28 12:01:29;;;;;;;9.13;2.03;;;19.10;99.90;;;;;;4826323;29;19969;-80
2023/09/28 12:03:56;;;;;;;;;;;19.10;99.90;;;;;;4826443;29;20045;-80
2023/09/28 12:06:22;;;;;;;8.27;2.58;;;19.20;99.90;;;;;;4826446;29;20341;-80
2023/09/28 12:08:48;;;;;;;;;;;19.20;99.90;;;;;;4826897;29;20046;-80
2023/09/28 12:11:14;;;;;;;5.32;2.05;;;19.20;99.90;;;;;;4826140;29;20362;-80
2023/09/28 12:13:39;;;;;;;;;;;19.30;99.90;;;;;;4811338;29;20044;-80
2023/09/28 12:16:05;;;;;;;6.50;1.90;;;19.40;99.90;;;;;;4825076;29;19939;-80
2023/09/28 12:18:32;;;;;;;5.65;1.73;;;19.50;99.90;;;;;;4826083;29;20125;-80
2023/09/28 12:20:58;;;;;;;5.47;1.80;;;19.50;99.90;;;;;;4826065;29;20106;-80
2023/09/28 12:23:25;;;;;;;;;;;19.50;99.90;;;;;;4826682;29;20054;-80
2023/09/28 12:25:51;;;;;;;9.68;2.50;;;19.60;99.90;;;;;;4856225;29;19943;-80
2023/09/28 12:28:17;;;;;;;9.55;2.38;;;19.60;99.90;;;;;;4825637;29;20046;-80
2023/09/28 12:30:44;;;;;;;6.70;1.90;;;19.50;99.90;;;;;;4841106;29;20637;-80
2023/09/28 12:33:10;;;;;;;7.95;2.15;;;19.40;99.90;;;;;;4825710;29;20088;-80
2023/09/28 12:35:38;;;;;;;9.25;2.78;;;19.30;99.90;;;;;;4826015;29;20061;-80
2023/09/28 12:38:04;;;;;;;8.05;1.80;;;19.20;99.90;;;;;;4825692;29;20402;-80
2023/09/28 12:40:32;;;;;;;;;;;19.20;99.90;;;;;;4826453;29;20042;-81
2023/09/28 12:43:00;;;;;;;7.03;1.95;;;19.20;99.90;;;;;;4856118;29;19927;-80
2023/09/28 12:45:26;;;;;;;7.70;2.20;;;19.20;99.90;;;;;;4825531;29;20058;-80
2023/09/28 12:47:53;;;;;;;6.68;1.90;;;19.20;99.90;;;;;;4856425;29;20046;-80
2023/09/28 12:50:19;;;;;;;8.98;2.10;;;19.20;99.90;;;;;;4825211;29;20050;-80
2023/09/28 12:52:45;;;;;;;;;;;19.30;99.90;;;;;;4825651;29;20061;-80
2023/09/28 12:55:11;;;;;;;6.93;1.67;;;19.30;99.90;;;;;;4856317;29;19944;-80
2023/09/28 12:57:37;;;;;;;6.57;2.00;;;19.40;99.90;;;;;;4810191;29;20128;-80
2023/09/28 13:17:38;;;;;;;7.40;1.92;;;19.50;99.90;;;;;;5484178;23;20055;-80
2023/09/28 13:20:08;;;;;;;8.05;1.95;;;19.60;99.90;;;;;;4846054;29;20087;-79
2023/09/28 13:22:34;;;;;;;6.80;2.15;;;19.50;99.90;;;;;;4861562;29;20060;-79
2023/09/28 13:25:00;;;;;;;;;;;19.40;99.90;;;;;;4862080;29;20059;-79
2023/09/28 13:27:25;;;;;;;9.38;2.30;;;19.40;99.90;;;;;;4861466;29;20496;-79
2023/09/28 13:29:51;;;;;;;;;;;19.40;99.90;;;;;;4845591;29;20466;-79
2023/09/28 13:32:18;;;;;;;7.70;2.60;;;19.30;99.90;;;;;;4835268;29;19920;-79
2023/09/28 13:34:44;;;;;;;10.60;2.20;;;19.30;99.90;;;;;;4858809;29;20506;-82
2023/09/28 13:37:11;;;;;;;6.20;1.80;;;19.20;99.90;;;;;;4861655;29;20064;-80
2023/09/28 13:39:40;;;;;;;7.82;2.08;;;19.30;99.90;;;;;;4859425;29;20512;-79
2023/09/28 13:42:06;;;;;;;6.05;2.00;;;19.20;99.90;;;;;;4860660;29;20080;-79
2023/09/28 13:44:32;;;;;;;;;;;19.30;99.90;;;;;;4861246;29;20083;-79
2023/09/28 13:47:01;;;;;;;7.05;2.25;;;19.40;99.90;;;;;;4866937;29;19919;-79
2023/09/28 13:49:28;;;;;;;5.97;2.00;;;19.40;99.90;;;;;;4868091;29;20696;-79
2023/09/28 13:51:57;;;;;;;5.75;1.65;;;19.40;99.90;;;;;;4876511;29;20124;-79
2023/09/28 13:54:27;;;;;;;7.88;2.15;;;19.40;99.90;;;;;;4860903;29;20041;-79
2023/09/28 13:56:58;;;;;;;5.53;1.70;;;19.40;99.90;;;;;;4876270;29;20077;-79
2023/09/28 13:59:24;;;;;;;11.27;2.13;;;19.30;99.90;;;;;;4857383;29;20056;-79
2023/09/28 14:01:51;;;;;;;5.78;1.63;;;19.20;99.90;;;;;;4851318;29;20381;-78
2023/09/28 14:04:18;;;;;;;3.47;1.60;;;19.20;99.90;;;;;;4825679;29;20136;-80
2023/09/28 14:06:44;;;;;;;5.00;1.45;;;19.20;99.90;;;;;;4844580;29;20045;-77
2023/09/28 14:09:11;;;;;;;3.35;1.27;;;19.20;99.90;;;;;;4841959;29;20052;-78
2023/09/28 14:11:47;;;;;;;4.70;1.40;;;19.10;99.90;;;;;;4854201;29;20052;-79
2023/09/28 14:14:14;;;;;;;;;;;19.10;99.90;;;;;;4860212;29;20048;-79
2023/09/28 14:16:43;;;;;;;5.95;1.58;;;19.10;99.90;;;;;;4860087;29;19920;-79
2023/09/28 14:19:10;;;;;;;5.07;1.20;;;19.20;99.90;;;;;;4829144;29;20060;-79
2023/09/28 14:21:37;;;;;;;3.08;1.05;;;19.20;99.90;;;;;;4825611;29;20125;-79
2023/09/28 14:24:06;;;;;;;3.10;1.13;;;19.30;99.90;;;;;;4830052;29;20041;-80
2023/09/28 14:26:33;;;;;;;2.78;1.13;;;19.30;99.90;;;;;;4826765;29;20494;-78
2023/09/28 14:29:00;;;;;;;3.88;1.15;;;19.30;99.90;;;;;;4841707;29;20132;-78
2023/09/28 14:31:27;;;;;;;2.38;0.82;;;19.20;99.90;;;;;;4841726;29;20774;-78
2023/09/28 14:33:52;;;;;;;3.65;1.20;;;19.20;99.90;;;;;;4842032;29;20402;-78
2023/09/28 14:36:20;;;;;;;;;;;19.10;99.90;;;;;;4866457;29;20048;-78
2023/09/28 14:38:49;;;;;;;2.10;0.68;;;19.10;99.90;;;;;;4838550;29;19929;-78
2023/09/28 14:41:19;;;;;;;3.65;1.00;;;19.10;99.90;;;;;;4854715;29;20124;-79
2023/09/28 14:43:49;;;;;;;4.57;1.30;;;19.00;99.90;;;;;;4852684;29;20137;-79
2023/09/28 14:46:15;;;;;;;3.40;1.23;;;18.90;99.90;;;;;;4847926;29;20513;-79
2023/09/28 14:48:42;;;;;;;4.55;1.17;;;18.90;99.90;;;;;;4833713;29;20053;-79
2023/09/28 14:51:09;;;;;;;3.13;1.13;;;18.90;99.90;;;;;;4826804;29;20064;-79
2023/09/28 14:53:35;;;;;;;3.83;1.20;;;18.80;99.90;;;;;;4836934;29;20497;-79
2023/09/28 14:56:01;;;;;;;3.28;1.10;;;18.80;99.90;;;;;;4841748;29;20088;-79
2023/09/28 14:58:27;;;;;;;;;;;18.80;99.90;;;;;;4841419;29;20084;-79
2023/09/28 15:00:53;;;;;;;5.47;1.80;;;18.70;99.90;;;;;;4825554;29;19924;-79
2023/09/28 15:03:19;;;;;;;;;;;18.70;99.90;;;;;;4826049;29;20401;-79
2023/09/28 15:05:47;;;;;;;4.70;1.20;;;18.70;99.90;;;;;;4841422;29;19920;-79
2023/09/28 15:08:14;;;;;;;4.55;1.50;;;18.70;99.90;;;;;;4841396;29;20470;-79
2023/09/28 15:10:39;;;;;;;4.65;1.10;;;18.70;99.90;;;;;;4824279;29;20106;-80
2023/09/28 15:13:05;;;;;;;;;;;18.60;99.90;;;;;;4795598;29;20442;-80
2023/09/28 15:15:31;;;;;;;6.53;1.40;;;18.60;99.90;;;;;;4841188;29;19924;-79
2023/09/28 15:17:57;;;;;;;;;;;18.60;99.90;;;;;;4841198;29;20477;-81
2023/09/28 15:20:23;;;;;;;3.90;1.38;;;18.60;99.90;;;;;;4841571;29;19928;-81
2023/09/28 15:22:49;;;;;;;;;;;18.60;99.90;;;;;;4841171;29;20084;-80
2023/09/28 15:25:15;;;;;;;2.75;1.23;;;18.60;99.90;;;;;;4813126;29;19995;-81
2023/09/28 15:27:44;;;;;;;;;;;18.60;99.90;;;;;;4837885;29;20045;-81
2023/09/28 15:30:14;;;;;;;3.35;1.30;;;18.60;99.90;;;;;;4841754;29;19924;-81
2023/09/28 15:32:48;;;;;;;2.92;1.13;;;18.60;99.90;;;;;;4856973;29;20053;-81
2023/09/28 15:35:14;;;;;;;3.78;1.27;;;18.60;99.90;;;;;;4827021;29;20117;-81